Time;durP1;ratioP1;P1;durP2;ratioP2;P2;SDS_P1;SDS_P2;PMS_P1;PMS_P2;Temp;Humidity;BMP_temperature;BMP_pressure;BME280_temperature;BME280_humidity;BME280_pressure;Samples;Min_cycle;Max_cycle;Signal;HPM_P1;HPM_P2
2021/04/24 00:21:19;;;;;;;16.85;6.07;;;;;;;;;;4743184;30;20076;-87
2021/04/24 00:30:50;;;;;;;20.40;7.18;;;;;;;;;;4731590;30;20650;-87
2021/04/24 00:44:55;;;;;;;16.25;5.90;;;;;;;;;;4803258;29;20160;-87
2021/04/24 00:48:07;;;;;;;18.08;6.93;;;;;;;;;;4841918;29;20438;-86
2021/04/24 01:26:18;;;;;;;13.52;5.60;;;;;;;;;;4943573;29;20079;-86
2021/04/24 02:28:26;;;;;;;;;;;;;;;;;;;;;
2021/04/24 02:34:37;;;;;;;;;;;;;;;;;;;;;
2021/04/24 02:37:59;;;;;;;;;;;;;;;;;;;;;
2021/04/24 02:40:55;;;;;;;19.80;8.30;;;;;;;;;;4967367;28;20403;-86
2021/04/24 02:43:28;;;;;;;23.13;9.10;;;;;;;;;;4989785;28;20137;-86
2021/04/24 02:46:07;;;;;;;24.00;8.25;;;;;;;;;;4988401;28;20125;-86
2021/04/24 02:55:44;;;;;;;21.83;8.40;;;;;;;;;;4948139;29;20058;-86
2021/04/24 03:08:47;;;;;;;21.33;7.95;;;;;;;;;;4910091;29;20135;-86
2021/04/24 03:42:59;;;;;;;25.90;8.18;;;;;;;;;;5012652;28;20080;-86
2021/04/24 03:49:11;;;;;;;27.35;7.28;;;;;;;;;;5005599;28;20041;-85
2021/04/24 03:58:46;;;;;;;34.23;9.40;;;;;;;;;;5058853;23;20054;-87
2021/04/24 04:01:14;;;;;;;28.45;9.65;;;;;;;;;;4993737;28;20046;-86
2021/04/24 04:03:41;;;;;;;28.15;9.45;;;;;;;;;;4993374;28;20047;-86
2021/04/24 04:06:08;;;;;;;25.30;8.48;;;;;;;;;;4993678;28;20112;-86
2021/04/24 04:08:35;;;;;;;25.27;8.60;;;;;;;;;;4993928;28;20057;-87
2021/04/24 04:11:02;;;;;;;24.23;8.75;;;;;;;;;;4993288;28;20399;-86
2021/04/24 04:13:32;;;;;;;19.92;8.45;;;;;;;;;;4994120;28;20050;-86
2021/04/24 04:15:59;;;;;;;31.00;9.02;;;;;;;;;;4992260;28;20061;-85
2021/04/24 04:18:25;;;;;;;23.45;8.18;;;;;;;;;;4988982;28;20097;-85
2021/04/24 04:20:53;;;;;;;21.60;8.32;;;;;;;;;;4991992;28;20082;-85
2021/04/24 04:23:22;;;;;;;26.17;8.35;;;;;;;;;;4992345;28;20052;-85
2021/04/24 04:25:50;;;;;;;25.27;7.95;;;;;;;;;;4994545;28;20096;-85
2021/04/24 04:28:18;;;;;;;32.38;8.27;;;;;;;;;;4994674;28;20069;-86
2021/04/24 04:30:46;;;;;;;28.23;8.60;;;;;;;;;;4994806;28;20137;-86
2021/04/24 04:33:13;;;;;;;31.25;8.70;;;;;;;;;;4994311;28;20046;-87
2021/04/24 04:35:40;;;;;;;27.33;9.00;;;;;;;;;;4994691;28;20077;-86
2021/04/24 04:38:07;;;;;;;33.80;8.77;;;;;;;;;;4994249;28;20081;-87
2021/04/24 04:40:34;;;;;;;30.88;9.32;;;;;;;;;;4995767;28;20140;-87
2021/04/24 04:43:01;;;;;;;30.00;9.45;;;;;;;;;;4997719;28;20762;-87
2021/04/24 04:45:28;;;;;;;24.42;9.52;;;;;;;;;;5015043;28;20081;-87
2021/04/24 04:47:54;;;;;;;38.95;13.88;;;;;;;;;;4997481;28;20058;-85
2021/04/24 04:50:23;;;;;;;25.08;9.23;;;;;;;;;;4997567;28;20108;-86
2021/04/24 04:52:50;;;;;;;33.38;9.18;;;;;;;;;;4997930;28;20100;-86
2021/04/24 04:55:17;;;;;;;27.10;9.45;;;;;;;;;;4997450;28;20085;-85
2021/04/24 04:57:44;;;;;;;31.00;9.48;;;;;;;;;;4993882;28;20480;-85
2021/04/24 05:00:12;;;;;;;37.88;10.40;;;;;;;;;;4979872;28;20054;-85
2021/04/24 05:02:40;;;;;;;36.20;10.55;;;;;;;;;;4997564;28;20140;-85
2021/04/24 05:05:07;;;;;;;27.73;8.95;;;;;;;;;;4997880;28;20441;-85
2021/04/24 05:07:34;;;;;;;30.45;8.82;;;;;;;;;;4987040;28;20077;-84
2021/04/24 05:10:24;;;;;;;28.70;9.80;;;;;;;;;;4981031;28;20100;-84
2021/04/24 05:12:51;;;;;;;25.30;9.55;;;;;;;;;;4993143;28;20498;-85
2021/04/24 05:15:18;;;;;;;25.58;8.75;;;;;;;;;;5006961;28;20116;-85
2021/04/24 05:17:45;;;;;;;26.17;9.07;;;;;;;;;;4997476;28;20052;-84
2021/04/24 05:20:14;;;;;;;23.52;10.05;;;;;;;;;;4998192;28;20152;-85
2021/04/24 05:22:42;;;;;;;30.17;10.63;;;;;;;;;;5014281;28;20106;-85
2021/04/24 05:25:09;;;;;;;25.17;9.32;;;;;;;;;;4998352;28;20065;-84
2021/04/24 05:27:36;;;;;;;27.20;10.02;;;;;;;;;;4996535;28;20042;-84
2021/04/24 05:30:04;;;;;;;29.40;9.02;;;;;;;;;;4997163;28;20084;-84
2021/04/24 05:32:31;;;;;;;27.02;8.80;;;;;;;;;;4997644;28;20050;-85
2021/04/24 05:34:57;;;;;;;34.08;9.45;;;;;;;;;;4996938;28;20077;-84
2021/04/24 05:37:24;;;;;;;27.08;9.43;;;;;;;;;;5011238;28;20069;-86
2021/04/24 05:39:52;;;;;;;31.33;10.43;;;;;;;;;;4996883;28;20518;-85
2021/04/24 05:42:26;;;;;;;27.35;8.98;;;;;;;;;;4998402;28;20073;-84
2021/04/24 05:44:55;;;;;;;26.10;8.90;;;;;;;;;;4996842;28;20498;-84
2021/04/24 05:47:22;;;;;;;29.33;9.90;;;;;;;;;;4993368;28;20573;-85
2021/04/24 05:49:49;;;;;;;31.35;9.85;;;;;;;;;;5012817;28;20057;-87
2021/04/24 05:52:16;;;;;;;23.92;9.10;;;;;;;;;;4995789;28;20112;-87
2021/04/24 05:54:43;;;;;;;25.70;9.70;;;;;;;;;;4996620;28;20075;-87
2021/04/24 05:57:11;;;;;;;19.88;8.95;;;;;;;;;;4991987;28;20049;-92
2021/04/24 05:59:38;;;;;;;30.42;9.63;;;;;;;;;;4998384;28;20073;-89
2021/04/24 06:02:04;;;;;;;27.35;9.88;;;;;;;;;;4996881;28;20076;-89
2021/04/24 06:04:31;;;;;;;32.90;9.43;;;;;;;;;;4996578;28;20169;-88
2021/04/24 06:07:00;;;;;;;27.65;9.82;;;;;;;;;;4997234;28;20046;-90
2021/04/24 06:09:27;;;;;;;24.17;9.27;;;;;;;;;;4997024;28;20533;-88
2021/04/24 06:11:54;;;;;;;24.45;9.27;;;;;;;;;;4997995;28;20050;-91
2021/04/24 06:14:20;;;;;;;29.13;8.98;;;;;;;;;;4997155;28;20116;-89
2021/04/24 06:16:56;;;;;;;22.73;8.20;;;;;;;;;;5000473;28;20081;-94
2021/04/24 06:19:23;;;;;;;23.23;8.43;;;;;;;;;;4998116;28;20796;-82
2021/04/24 06:21:58;;;;;;;21.45;8.95;;;;;;;;;;4995874;28;20518;-82
2021/04/24 06:24:25;;;;;;;32.00;8.75;;;;;;;;;;4995843;28;20669;-81
2021/04/24 06:26:51;;;;;;;24.17;9.35;;;;;;;;;;4995763;28;20046;-82
2021/04/24 06:29:18;;;;;;;23.08;8.82;;;;;;;;;;4995175;28;20160;-85
2021/04/24 06:31:45;;;;;;;22.05;9.07;;;;;;;;;;4979932;28;20058;-83
2021/04/24 06:34:12;;;;;;;25.08;8.30;;;;;;;;;;5004780;28;20057;-85
2021/04/24 06:36:39;;;;;;;23.83;9.05;;;;;;;;;;4995862;28;20061;-83
2021/04/24 06:39:06;;;;;;;23.25;8.38;;;;;;;;;;4995736;28;20066;-85
2021/04/24 06:41:33;;;;;;;27.33;8.35;;;;;;;;;;4995167;28;20096;-86
2021/04/24 06:44:00;;;;;;;22.92;7.90;;;;;;;;;;5012960;28;20054;-84
2021/04/24 06:46:27;;;;;;;25.65;8.30;;;;;;;;;;4994829;28;20128;-83
2021/04/24 06:48:54;;;;;;;19.05;7.22;;;;;;;;;;4992504;28;20050;-87
2021/04/24 06:51:21;;;;;;;26.75;8.95;;;;;;;;;;4992955;28;20058;-84
2021/04/24 06:53:51;;;;;;;20.10;8.25;;;;;;;;;;4991360;28;20073;-84
2021/04/24 06:56:18;;;;;;;27.20;8.32;;;;;;;;;;5011938;28;20058;-82
2021/04/24 06:58:44;;;;;;;20.75;7.18;;;;;;;;;;5001012;28;20072;-82
2021/04/24 07:01:11;;;;;;;21.63;8.38;;;;;;;;;;4994859;28;20132;-82
2021/04/24 07:03:50;;;;;;;19.98;7.95;;;;;;;;;;5011603;28;20738;-81
2021/04/24 07:06:18;;;;;;;18.42;7.10;;;;;;;;;;4986597;28;20142;-82
2021/04/24 07:08:45;;;;;;;26.25;6.35;;;;;;;;;;4996016;28;20061;-82
2021/04/24 07:11:12;;;;;;;19.20;6.20;;;;;;;;;;4994682;28;20081;-82
2021/04/24 07:13:39;;;;;;;23.15;6.75;;;;;;;;;;5011853;28;20077;-81
2021/04/24 07:16:10;;;;;;;17.52;7.53;;;;;;;;;;4993492;28;20096;-82
2021/04/24 07:18:37;;;;;;;19.85;7.63;;;;;;;;;;4993800;28;20058;-81
2021/04/24 07:21:05;;;;;;;23.75;7.80;;;;;;;;;;4991682;28;20136;-81
2021/04/24 07:23:32;;;;;;;20.88;5.65;;;;;;;;;;5008596;28;20054;-81
2021/04/24 07:26:00;;;;;;;21.05;7.07;;;;;;;;;;4994920;28;20077;-82
2021/04/24 07:28:27;;;;;;;21.73;6.18;;;;;;;;;;4995662;28;20081;-81
2021/04/24 07:30:54;;;;;;;17.13;5.57;;;;;;;;;;4994408;28;20045;-82
2021/04/24 07:33:23;;;;;;;19.92;6.60;;;;;;;;;;4991242;28;20073;-81
2021/04/24 07:35:51;;;;;;;20.08;4.80;;;;;;;;;;4994380;28;20057;-81
2021/04/24 07:38:18;;;;;;;16.08;4.72;;;;;;;;;;4994778;28;20069;-81
2021/04/24 07:40:45;;;;;;;17.30;4.72;;;;;;;;;;4994999;28;20049;-80
2021/04/24 07:43:12;;;;;;;15.38;4.80;;;;;;;;;;4989222;23;20046;-87
2021/04/24 07:45:45;;;;;;;16.05;4.75;;;;;;;;;;4971347;28;20058;-86
2021/04/24 07:48:15;;;;;;;15.90;4.63;;;;;;;;;;4971241;28;20051;-87
2021/04/24 07:50:42;;;;;;;16.38;5.30;;;;;;;;;;4972325;28;20672;-87
2021/04/24 07:53:08;;;;;;;13.68;4.13;;;;;;;;;;4968984;28;20086;-84
2021/04/24 07:55:38;;;;;;;13.63;4.00;;;;;;;;;;4970155;28;20062;-84
2021/04/24 07:58:14;;;;;;;12.65;4.63;;;;;;;;;;4969033;28;20134;-85
2021/04/24 08:00:43;;;;;;;14.00;3.97;;;;;;;;;;4971031;28;20038;-85
2021/04/24 08:03:12;;;;;;;12.25;3.50;;;;;;;;;;4967710;28;20043;-84
2021/04/24 08:05:55;;;;;;;18.85;4.63;;;;;;;;;;4972201;28;20051;-85
2021/04/24 08:08:22;;;;;;;13.02;4.40;;;;;;;;;;4971340;28;20547;-85
2021/04/24 08:10:49;;;;;;;11.00;4.18;;;;;;;;;;4967101;28;20491;-82
2021/04/24 08:13:16;;;;;;;17.42;4.10;;;;;;;;;;4971030;28;20078;-79
2021/04/24 08:15:43;;;;;;;16.42;4.22;;;;;;;;;;4973730;28;20058;-81
2021/04/24 08:18:10;;;;;;;10.90;3.67;;;;;;;;;;4974259;28;20130;-83
2021/04/24 08:20:38;;;;;;;15.20;4.28;;;;;;;;;;4976586;28;20875;-86
2021/04/24 08:23:06;;;;;;;17.83;4.82;;;;;;;;;;4972195;28;20046;-83
2021/04/24 08:25:33;;;;;;;11.27;4.90;;;;;;;;;;4974891;28;20050;-87
2021/04/24 08:28:00;;;;;;;9.50;3.90;;;;;;;;;;4975179;28;20050;-87
2021/04/24 08:30:27;;;;;;;13.40;3.70;;;;;;;;;;4968803;28;20055;-84
2021/04/24 08:32:54;;;;;;;20.27;4.40;;;;;;;;;;4971357;28;20051;-86
2021/04/24 08:35:22;;;;;;;9.88;3.67;;;;;;;;;;4973958;28;20872;-86
2021/04/24 08:37:52;;;;;;;11.93;4.10;;;;;;;;;;4974857;28;20050;-84
2021/04/24 08:40:20;;;;;;;9.68;3.97;;;;;;;;;;4974601;28;20093;-85
2021/04/24 08:42:48;;;;;;;12.80;4.45;;;;;;;;;;4974784;28;20102;-87
2021/04/24 08:45:23;;;;;;;11.38;3.63;;;;;;;;;;4974749;28;20411;-85
2021/04/24 08:47:56;;;;;;;13.10;4.05;;;;;;;;;;4968402;28;20563;-85
2021/04/24 08:50:29;;;;;;;13.88;3.50;;;;;;;;;;4975572;28;20058;-87
2021/04/24 08:52:57;;;;;;;17.05;3.90;;;;;;;;;;4974858;28;20456;-87
2021/04/24 08:55:25;;;;;;;15.60;4.15;;;;;;;;;;4974389;28;20113;-87
2021/04/24 08:57:52;;;;;;;9.80;3.47;;;;;;;;;;4973655;28;20108;-80
2021/04/24 09:00:22;;;;;;;16.83;3.58;;;;;;;;;;4971826;28;20101;-82
2021/04/24 09:02:49;;;;;;;10.15;4.05;;;;;;;;;;4972421;28;20097;-84
2021/04/24 09:05:18;;;;;;;8.70;3.67;;;;;;;;;;4969350;28;20063;-83
2021/04/24 09:07:45;;;;;;;10.57;3.53;;;;;;;;;;4971525;28;20051;-86
2021/04/24 09:10:15;;;;;;;11.07;3.13;;;;;;;;;;4973565;28;20050;-86
2021/04/24 09:12:45;;;;;;;15.70;4.20;;;;;;;;;;4968605;28;20043;-85
2021/04/24 09:15:25;;;;;;;11.57;3.75;;;;;;;;;;4971205;28;20102;-86
2021/04/24 09:17:59;;;;;;;12.55;3.47;;;;;;;;;;4968729;28;20104;-87
2021/04/24 09:23:33;;;;;;;10.23;4.03;;;;;;;;;;4965245;28;20166;-88
2021/04/24 09:26:01;;;;;;;19.48;4.53;;;;;;;;;;4968971;28;20046;-88
2021/04/24 09:28:41;;;;;;;11.40;3.65;;;;;;;;;;4972995;28;20381;-88
2021/04/24 09:31:15;;;;;;;11.70;3.47;;;;;;;;;;4973672;28;20054;-88
2021/04/24 09:33:43;;;;;;;14.57;4.28;;;;;;;;;;4970777;28;20102;-87
2021/04/24 09:36:12;;;;;;;9.65;3.67;;;;;;;;;;4972346;28;20547;-86
2021/04/24 09:38:40;;;;;;;13.13;3.95;;;;;;;;;;4973452;28;20074;-86
2021/04/24 09:41:19;;;;;;;9.95;3.38;;;;;;;;;;4972836;28;20055;-84
2021/04/24 09:46:56;;;;;;;11.45;4.38;;;;;;;;;;4971105;28;20086;-85
2021/04/24 09:49:25;;;;;;;13.77;4.45;;;;;;;;;;4966559;28;20098;-85
2021/04/24 09:51:52;;;;;;;9.43;3.88;;;;;;;;;;4965190;28;20054;-85
2021/04/24 09:54:20;;;;;;;14.57;4.15;;;;;;;;;;4972751;28;20072;-85
2021/04/24 09:57:05;;;;;;;11.02;3.90;;;;;;;;;;4972208;28;20455;-85
2021/04/24 09:59:32;;;;;;;9.80;4.05;;;;;;;;;;4969985;28;20051;-84
2021/04/24 10:02:00;;;;;;;10.65;4.10;;;;;;;;;;4964013;28;20046;-84
2021/04/24 10:04:28;;;;;;;9.05;3.33;;;;;;;;;;4971554;28;20157;-84
2021/04/24 10:06:55;;;;;;;7.68;3.45;;;;;;;;;;4971641;28;20084;-84
2021/04/24 10:09:31;;;;;;;9.38;3.33;;;;;;;;;;4971768;28;20062;-84
2021/04/24 10:12:01;;;;;;;8.98;3.33;;;;;;;;;;4973363;28;20419;-84
2021/04/24 10:14:38;;;;;;;8.88;3.22;;;;;;;;;;4970074;28;20137;-84
2021/04/24 10:17:10;;;;;;;12.35;4.10;;;;;;;;;;4969570;28;20120;-86
2021/04/24 10:19:40;;;;;;;13.45;4.47;;;;;;;;;;4966442;28;20582;-87
2021/04/24 10:22:09;;;;;;;7.95;3.05;;;;;;;;;;4956810;28;20507;-88
2021/04/24 10:24:36;;;;;;;9.02;3.25;;;;;;;;;;4954536;28;20612;-89
2021/04/24 10:27:04;;;;;;;11.80;3.25;;;;;;;;;;4972546;28;20119;-86
2021/04/24 10:29:33;;;;;;;12.52;3.85;;;;;;;;;;4972730;28;20051;-89
2021/04/24 10:31:59;;;;;;;16.50;4.57;;;;;;;;;;4972348;28;20699;-88
2021/04/24 10:34:26;;;;;;;16.02;4.65;;;;;;;;;;4966638;28;20053;-83
2021/04/24 10:36:58;;;;;;;14.60;4.10;;;;;;;;;;4971714;28;20106;-86
2021/04/24 10:39:34;;;;;;;13.25;3.72;;;;;;;;;;4971396;28;20532;-85
2021/04/24 10:42:34;;;;;;;10.05;3.33;;;;;;;;;;4961770;28;20047;-84
2021/04/24 10:45:06;;;;;;;10.27;4.30;;;;;;;;;;4926144;28;20094;-82
2021/04/24 10:47:41;;;;;;;11.85;3.78;;;;;;;;;;4971010;28;20082;-85
2021/04/24 10:50:09;;;;;;;11.38;2.35;;;;;;;;;;4970588;28;20098;-88
2021/04/24 10:52:38;;;;;;;5.95;2.50;;;;;;;;;;4971851;28;20047;-83
2021/04/24 10:55:14;;;;;;;10.52;3.35;;;;;;;;;;4972082;28;20051;-85
2021/04/24 10:57:45;;;;;;;16.95;4.57;;;;;;;;;;4971835;28;20869;-89
2021/04/24 11:00:11;;;;;;;16.75;3.70;;;;;;;;;;4968329;28;20157;-87
2021/04/24 11:02:40;;;;;;;12.95;3.97;;;;;;;;;;4972125;28;20109;-88
2021/04/24 11:05:17;;;;;;;9.50;3.05;;;;;;;;;;4967704;28;20496;-86
2021/04/24 11:07:45;;;;;;;8.77;2.20;;;;;;;;;;4970813;28;20088;-86
2021/04/24 11:10:12;;;;;;;2.20;1.25;;;;;;;;;;4963012;28;20444;-86
2021/04/24 11:12:42;;;;;;;2.20;1.08;;;;;;;;;;4971885;28;20095;-83
2021/04/24 11:15:10;;;;;;;3.53;1.90;;;;;;;;;;4972191;28;20100;-83
2021/04/24 11:17:38;;;;;;;4.22;1.83;;;;;;;;;;4986622;23;20074;-83
2021/04/24 11:20:10;;;;;;;9.45;2.10;;;;;;;;;;4967593;28;20054;-85
2021/04/24 11:22:43;;;;;;;5.68;2.08;;;;;;;;;;4971686;28;20092;-84
2021/04/24 11:25:16;;;;;;;3.75;1.80;;;;;;;;;;4970176;28;20133;-84
2021/04/24 11:28:04;;;;;;;5.15;2.15;;;;;;;;;;4955026;28;20523;-87
2021/04/24 11:30:59;;;;;;;6.18;1.92;;;;;;;;;;4962696;28;20075;-88
2021/04/24 11:33:32;;;;;;;8.50;2.17;;;;;;;;;;4969504;28;20086;-89
2021/04/24 11:36:16;;;;;;;6.13;2.55;;;;;;;;;;4969688;28;20103;-90
2021/04/24 11:41:30;;;;;;;3.42;1.60;;;;;;;;;;4984209;28;20138;-86
2021/04/24 11:43:58;;;;;;;5.80;1.60;;;;;;;;;;4966661;28;20074;-89
2021/04/24 11:46:35;;;;;;;5.90;1.80;;;;;;;;;;4967449;28;20130;-87
2021/04/24 11:49:05;;;;;;;7.72;2.72;;;;;;;;;;4963532;28;20058;-86
2021/04/24 11:51:32;;;;;;;7.50;2.90;;;;;;;;;;4962387;28;20046;-86
2021/04/24 11:54:03;;;;;;;9.68;2.45;;;;;;;;;;4960246;28;21807;-87
2021/04/24 11:56:36;;;;;;;7.93;2.38;;;;;;;;;;4966504;28;20054;-83
2021/04/24 11:59:04;;;;;;;5.72;3.03;;;;;;;;;;4960947;28;20105;-83
2021/04/24 12:01:33;;;;;;;13.93;3.10;;;;;;;;;;4968290;28;20518;-86
2021/04/24 12:04:01;;;;;;;10.07;2.63;;;;;;;;;;4959548;28;20050;-86
2021/04/24 12:06:33;;;;;;;7.25;2.53;;;;;;;;;;4967948;28;20054;-84
2021/04/24 12:09:03;;;;;;;8.80;2.22;;;;;;;;;;4962075;28;20133;-84
2021/04/24 12:11:30;;;;;;;7.65;2.70;;;;;;;;;;4959949;28;20050;-87
2021/04/24 12:13:58;;;;;;;5.72;2.17;;;;;;;;;;4988286;28;20408;-87
2021/04/24 12:16:45;;;;;;;8.70;2.53;;;;;;;;;;4970073;28;20059;-85
2021/04/24 12:19:23;;;;;;;5.10;2.22;;;;;;;;;;4988530;28;20437;-83
2021/04/24 12:22:09;;;;;;;5.53;2.05;;;;;;;;;;4961013;28;20042;-82
2021/04/24 12:24:49;;;;;;;8.73;2.90;;;;;;;;;;4959314;28;20133;-83
2021/04/24 12:27:49;;;;;;;7.22;2.60;;;;;;;;;;4980563;28;20058;-87
2021/04/24 12:30:19;;;;;;;6.13;2.20;;;;;;;;;;4915772;28;20054;-86
2021/04/24 12:32:49;;;;;;;6.05;2.03;;;;;;;;;;4990004;28;20496;-80
2021/04/24 12:35:30;;;;;;;8.43;2.30;;;;;;;;;;4961116;28;20050;-82
2021/04/24 12:38:15;;;;;;;4.95;2.42;;;;;;;;;;4963962;28;20082;-81
2021/04/24 12:40:45;;;;;;;13.35;2.90;;;;;;;;;;4964939;28;20420;-80
2021/04/24 12:43:12;;;;;;;15.48;4.18;;;;;;;;;;4970445;28;20105;-80
2021/04/24 12:45:40;;;;;;;10.98;3.13;;;;;;;;;;4983031;28;20675;-80
2021/04/24 12:48:13;;;;;;;12.75;5.25;;;;;;;;;;4967523;28;20098;-82
2021/04/24 12:50:41;;;;;;;6.75;2.55;;;;;;;;;;4965789;28;20434;-82
2021/04/24 12:53:11;;;;;;;9.57;2.75;;;;;;;;;;4963314;28;20066;-86
2021/04/24 12:55:43;;;;;;;9.88;2.88;;;;;;;;;;4984645;28;20543;-87
2021/04/24 12:58:12;;;;;;;10.40;3.65;;;;;;;;;;4970433;28;20517;-85
2021/04/24 13:00:40;;;;;;;9.57;4.38;;;;;;;;;;4983310;28;20542;-82
2021/04/24 13:03:27;;;;;;;9.75;3.13;;;;;;;;;;4958892;28;20452;-83
2021/04/24 13:05:56;;;;;;;16.30;3.00;;;;;;;;;;4964251;28;20515;-84
2021/04/24 13:08:24;;;;;;;7.50;3.47;;;;;;;;;;4986606;28;20057;-81
2021/04/24 13:11:11;;;;;;;7.70;2.97;;;;;;;;;;4963590;28;20058;-81
2021/04/24 13:13:39;;;;;;;10.52;2.67;;;;;;;;;;4986707;28;20502;-81
2021/04/24 13:16:10;;;;;;;11.40;3.90;;;;;;;;;;4992675;28;20130;-81
2021/04/24 13:18:45;;;;;;;16.80;2.90;;;;;;;;;;4963603;28;20466;-82
2021/04/24 13:21:20;;;;;;;6.32;2.90;;;;;;;;;;4965199;28;20696;-82
2021/04/24 13:23:59;;;;;;;8.70;3.13;;;;;;;;;;4968191;28;20046;-82
2021/04/24 13:26:26;;;;;;;12.18;3.03;;;;;;;;;;4983146;28;20684;-81
2021/04/24 13:28:55;;;;;;;7.22;2.65;;;;;;;;;;4987353;28;20603;-82
2021/04/24 13:31:24;;;;;;;7.45;2.42;;;;;;;;;;4986874;28;20488;-79
2021/04/24 13:33:51;;;;;;;6.68;2.22;;;;;;;;;;4985309;28;20058;-80
2021/04/24 13:36:20;;;;;;;9.25;3.25;;;;;;;;;;4987905;28;20065;-80
2021/04/24 13:38:48;;;;;;;7.05;2.30;;;;;;;;;;4986173;28;20112;-80
2021/04/24 13:41:19;;;;;;;8.98;2.53;;;;;;;;;;4971450;28;20043;-80
2021/04/24 13:43:45;;;;;;;11.30;2.80;;;;;;;;;;4985356;28;20073;-80
2021/04/24 13:46:23;;;;;;;9.13;3.53;;;;;;;;;;4969745;28;20146;-80
2021/04/24 13:48:54;;;;;;;8.45;2.83;;;;;;;;;;4968421;28;20055;-80
2021/04/24 13:51:21;;;;;;;11.27;3.20;;;;;;;;;;4968172;28;20085;-80
2021/04/24 13:53:48;;;;;;;7.03;2.70;;;;;;;;;;4983540;28;20070;-80
2021/04/24 13:56:15;;;;;;;5.65;2.35;;;;;;;;;;4971363;28;20058;-79
2021/04/24 13:58:42;;;;;;;7.00;2.47;;;;;;;;;;4989096;28;20132;-80
2021/04/24 14:01:09;;;;;;;7.00;2.55;;;;;;;;;;4959534;28;20141;-80
2021/04/24 14:03:36;;;;;;;5.78;2.60;;;;;;;;;;4973931;28;20798;-80
2021/04/24 14:06:03;;;;;;;8.55;2.53;;;;;;;;;;4961234;28;20474;-80
2021/04/24 14:08:32;;;;;;;10.30;2.90;;;;;;;;;;4967846;28;20054;-79
2021/04/24 14:11:00;;;;;;;14.30;3.45;;;;;;;;;;4964751;28;20058;-80
2021/04/24 14:13:27;;;;;;;7.65;3.20;;;;;;;;;;4967668;28;20741;-80
2021/04/24 14:16:05;;;;;;;9.43;3.30;;;;;;;;;;4984508;28;20078;-80
2021/04/24 14:18:34;;;;;;;8.57;3.00;;;;;;;;;;4966431;28;20050;-79
2021/04/24 14:21:00;;;;;;;7.35;2.78;;;;;;;;;;4972492;28;20073;-79
2021/04/24 14:23:28;;;;;;;9.32;3.38;;;;;;;;;;4958671;28;20057;-79
2021/04/24 14:25:56;;;;;;;8.40;3.60;;;;;;;;;;4988156;28;20140;-79
2021/04/24 14:28:25;;;;;;;9.27;3.20;;;;;;;;;;4965500;28;20053;-80
2021/04/24 14:30:53;;;;;;;13.65;3.17;;;;;;;;;;4984764;28;20101;-80
2021/04/24 14:33:20;;;;;;;8.45;2.90;;;;;;;;;;4990937;28;20053;-80
2021/04/24 14:35:47;;;;;;;8.88;2.28;;;;;;;;;;4983802;28;20073;-80
2021/04/24 14:38:17;;;;;;;7.20;2.60;;;;;;;;;;4963242;28;20504;-80
2021/04/24 14:40:44;;;;;;;6.00;2.70;;;;;;;;;;4983834;28;20053;-80
2021/04/24 14:43:11;;;;;;;8.57;2.75;;;;;;;;;;4969534;28;20082;-80
2021/04/24 14:45:48;;;;;;;12.10;3.17;;;;;;;;;;4972821;28;20059;-80
2021/04/24 14:48:15;;;;;;;4.70;2.35;;;;;;;;;;4963344;28;20046;-80
2021/04/24 14:50:42;;;;;;;11.27;3.65;;;;;;;;;;4974258;28;20070;-80
2021/04/24 14:53:09;;;;;;;15.07;2.85;;;;;;;;;;4990371;28;20137;-80
2021/04/24 14:55:36;;;;;;;5.20;2.78;;;;;;;;;;4988352;28;20845;-80
2021/04/24 14:58:05;;;;;;;10.02;2.97;;;;;;;;;;4966828;28;20531;-80
2021/04/24 15:00:32;;;;;;;9.90;3.10;;;;;;;;;;4982906;28;20050;-80
2021/04/24 15:02:59;;;;;;;8.38;3.00;;;;;;;;;;4972085;28;20046;-79
2021/04/24 15:05:25;;;;;;;7.93;3.53;;;;;;;;;;4961603;28;20495;-80
2021/04/24 15:07:52;;;;;;;8.25;3.20;;;;;;;;;;4971476;28;20050;-79
2021/04/24 15:10:19;;;;;;;6.45;3.30;;;;;;;;;;4967966;28;20133;-80
2021/04/24 15:12:46;;;;;;;10.50;3.55;;;;;;;;;;4989993;28;20140;-80
2021/04/24 15:15:13;;;;;;;11.68;3.50;;;;;;;;;;4990757;28;20049;-80
2021/04/24 15:17:40;;;;;;;8.55;3.00;;;;;;;;;;4972863;28;20695;-80
2021/04/24 15:20:08;;;;;;;10.55;3.22;;;;;;;;;;4985190;28;20058;-79
2021/04/24 15:22:37;;;;;;;9.38;3.53;;;;;;;;;;4991672;28;20494;-79
2021/04/24 15:25:04;;;;;;;9.77;3.35;;;;;;;;;;4986122;28;20125;-80
2021/04/24 15:27:31;;;;;;;11.82;3.20;;;;;;;;;;4987425;28;20056;-80
2021/04/24 15:29:59;;;;;;;9.98;3.40;;;;;;;;;;4967730;28;20073;-78
2021/04/24 15:32:25;;;;;;;9.90;3.00;;;;;;;;;;4972832;28;20535;-78
2021/04/24 15:34:52;;;;;;;10.25;3.67;;;;;;;;;;4965423;28;20054;-78
2021/04/24 15:37:20;;;;;;;8.13;3.15;;;;;;;;;;4969383;28;20506;-78
2021/04/24 15:39:51;;;;;;;10.95;3.33;;;;;;;;;;4968888;28;20109;-79
2021/04/24 15:42:19;;;;;;;6.07;2.60;;;;;;;;;;4983971;28;20050;-78
2021/04/24 15:44:46;;;;;;;11.98;2.88;;;;;;;;;;4972670;28;20458;-79
2021/04/24 15:47:13;;;;;;;7.07;2.78;;;;;;;;;;4982227;28;20054;-79
2021/04/24 15:49:41;;;;;;;4.68;2.63;;;;;;;;;;4980873;28;20053;-81
2021/04/24 15:52:11;;;;;;;11.85;3.15;;;;;;;;;;4956739;28;20089;-81
2021/04/24 15:54:39;;;;;;;7.35;2.67;;;;;;;;;;4985317;28;20104;-78
2021/04/24 15:57:10;;;;;;;6.65;2.35;;;;;;;;;;4980159;28;20050;-78
2021/04/24 15:59:50;;;;;;;9.40;3.33;;;;;;;;;;4987355;28;20046;-82
2021/04/24 16:02:19;;;;;;;16.50;7.20;;;;;;;;;;4983056;28;20081;-82
2021/04/24 16:04:53;;;;;;;29.38;4.65;;;;;;;;;;4973622;28;20084;-82
2021/04/24 16:07:20;;;;;;;12.32;3.25;;;;;;;;;;4982476;28;20050;-82
2021/04/24 16:09:48;;;;;;;8.43;2.78;;;;;;;;;;4988617;28;20062;-82
2021/04/24 16:12:21;;;;;;;4.50;1.75;;;;;;;;;;4967529;28;20054;-80
2021/04/24 16:14:48;;;;;;;3.50;2.10;;;;;;;;;;4968133;28;20053;-81
2021/04/24 16:17:14;;;;;;;2.55;1.38;;;;;;;;;;4968053;28;20050;-82
2021/04/24 16:19:47;;;;;;;4.72;1.70;;;;;;;;;;4983870;28;20643;-81
2021/04/24 16:22:17;;;;;;;6.28;2.40;;;;;;;;;;4987267;28;20116;-80
2021/04/24 16:24:45;;;;;;;3.58;1.58;;;;;;;;;;4983365;28;20080;-82
2021/04/24 16:27:12;;;;;;;3.00;1.70;;;;;;;;;;4976632;28;20132;-77
2021/04/24 16:29:39;;;;;;;6.43;2.30;;;;;;;;;;4980084;28;20653;-76
2021/04/24 16:32:25;;;;;;;4.32;1.80;;;;;;;;;;4966906;28;20054;-77
2021/04/24 16:34:54;;;;;;;1.55;1.02;;;;;;;;;;4968765;28;20155;-81
2021/04/24 16:37:23;;;;;;;3.58;1.50;;;;;;;;;;4969450;28;20089;-82
2021/04/24 16:39:52;;;;;;;4.28;1.85;;;;;;;;;;4990851;28;20059;-81
2021/04/24 16:42:24;;;;;;;5.15;1.40;;;;;;;;;;4963929;28;20648;-81
2021/04/24 16:44:51;;;;;;;5.13;1.50;;;;;;;;;;4972747;28;20085;-82
2021/04/24 16:47:18;;;;;;;3.38;1.70;;;;;;;;;;4989784;28;20473;-81
2021/04/24 16:49:45;;;;;;;3.08;1.75;;;;;;;;;;4971425;28;20078;-81
2021/04/24 16:52:13;;;;;;;3.38;1.15;;;;;;;;;;4983644;28;20051;-81
2021/04/24 16:54:40;;;;;;;2.38;1.38;;;;;;;;;;4986533;28;20132;-81
2021/04/24 16:57:08;;;;;;;12.27;2.00;;;;;;;;;;4982722;28;20039;-81
2021/04/24 16:59:37;;;;;;;3.92;2.05;;;;;;;;;;4990038;28;20054;-81
2021/04/24 17:02:05;;;;;;;4.05;1.88;;;;;;;;;;4991082;28;20050;-81
2021/04/24 17:04:33;;;;;;;4.35;1.35;;;;;;;;;;4981082;28;20050;-81
2021/04/24 17:07:01;;;;;;;9.35;1.92;;;;;;;;;;4980796;28;20125;-81
2021/04/24 17:09:27;;;;;;;21.88;9.93;;;;;;;;;;4981052;28;20050;-82
2021/04/24 17:11:55;;;;;;;7.95;4.60;;;;;;;;;;4986524;28;20904;-81
2021/04/24 17:14:22;;;;;;;5.57;1.92;;;;;;;;;;4972835;28;20133;-77
2021/04/24 17:16:48;;;;;;;3.17;2.17;;;;;;;;;;4982205;28;20431;-76
2021/04/24 17:19:20;;;;;;;6.38;2.60;;;;;;;;;;4955849;28;20566;-77
2021/04/24 17:21:47;;;;;;;14.82;7.00;;;;;;;;;;4958357;28;20138;-77
2021/04/24 17:24:14;;;;;;;6.53;3.20;;;;;;;;;;4961558;28;20194;-77
2021/04/24 17:26:40;;;;;;;27.08;13.57;;;;;;;;;;4956472;28;20492;-77
2021/04/24 17:29:07;;;;;;;17.15;8.73;;;;;;;;;;4961461;28;20109;-76
2021/04/24 17:31:34;;;;;;;6.82;3.42;;;;;;;;;;4985373;28;20054;-77
2021/04/24 17:34:01;;;;;;;6.88;1.70;;;;;;;;;;4983797;28;20061;-77
2021/04/24 17:36:28;;;;;;;8.45;2.22;;;;;;;;;;4969431;28;20062;-76
2021/04/24 17:38:55;;;;;;;3.33;2.08;;;;;;;;;;4972642;28;20062;-77
2021/04/24 17:41:25;;;;;;;4.13;2.30;;;;;;;;;;4967710;28;20069;-76
2021/04/24 17:43:52;;;;;;;3.95;2.03;;;;;;;;;;4967760;28;20503;-77
2021/04/24 17:46:20;;;;;;;4.68;2.10;;;;;;;;;;4958186;28;20061;-82
2021/04/24 17:48:47;;;;;;;8.32;2.35;;;;;;;;;;4972497;28;20391;-82
2021/04/24 17:51:15;;;;;;;4.97;3.30;;;;;;;;;;4986523;28;20054;-76
2021/04/24 17:53:42;;;;;;;6.28;2.95;;;;;;;;;;4966891;28;20189;-77
2021/04/24 17:56:10;;;;;;;6.60;3.10;;;;;;;;;;4989244;28;20093;-82
2021/04/24 17:58:37;;;;;;;5.78;2.95;;;;;;;;;;4984682;28;20117;-77
2021/04/24 18:01:05;;;;;;;6.80;2.80;;;;;;;;;;4969530;28;20089;-83
2021/04/24 18:03:31;;;;;;;8.75;3.42;;;;;;;;;;4966130;28;20391;-76
2021/04/24 18:05:58;;;;;;;6.43;3.65;;;;;;;;;;4989287;28;20050;-76
2021/04/24 18:08:25;;;;;;;7.95;3.70;;;;;;;;;;4977882;28;20061;-80
2021/04/24 18:11:01;;;;;;;5.55;3.05;;;;;;;;;;4964877;28;20074;-84
2021/04/24 18:13:31;;;;;;;8.30;2.53;;;;;;;;;;4983377;28;20054;-83
2021/04/24 18:15:59;;;;;;;4.03;2.33;;;;;;;;;;4986292;28;20077;-83
2021/04/24 18:18:25;;;;;;;5.30;2.30;;;;;;;;;;4980290;28;20546;-83
2021/04/24 18:20:54;;;;;;;3.10;2.17;;;;;;;;;;4984174;28;20078;-82